Time;durP1;ratioP1;P1;durP2;ratioP2;P2;SDS_P1;SDS_P2;PMS_P1;PMS_P2;Temp;Humidity;BMP_temperature;BMP_pressure;BME280_temperature;BME280_humidity;BME280_pressure;Samples;Min_cycle;Max_cycle;Signal;HPM_P1;HPM_P2
2021/10/21 00:01:50;;;;;;;8.10;1.20;;;;;;;;;;5035247;28;20037;-63
2021/10/21 00:04:16;;;;;;;6.28;1.10;;;;;;;;;;5053899;28;20544;-62
2021/10/21 00:06:42;;;;;;;6.40;1.30;;;;;;;;;;5053705;28;20562;-62
2021/10/21 00:09:08;;;;;;;8.93;1.58;;;;;;;;;;5053854;28;20101;-62
2021/10/21 00:11:34;;;;;;;4.70;1.20;;;;;;;;;;5053712;28;20408;-62
2021/10/21 00:14:00;;;;;;;5.25;1.20;;;;;;;;;;5053708;28;20036;-62
2021/10/21 00:16:27;;;;;;;5.43;1.50;;;;;;;;;;5052305;28;20025;-61
2021/10/21 00:18:53;;;;;;;6.53;1.30;;;;;;;;;;5053247;28;20029;-60
2021/10/21 00:21:19;;;;;;;8.88;2.10;;;;;;;;;;5035739;28;20086;-61
2021/10/21 00:23:45;;;;;;;8.20;1.50;;;;;;;;;;5053258;28;20029;-61
2021/10/21 00:26:11;;;;;;;9.27;1.60;;;;;;;;;;5053499;28;20064;-61
2021/10/21 00:28:38;;;;;;;5.47;1.50;;;;;;;;;;5068354;28;20031;-60
2021/10/21 00:31:04;;;;;;;10.27;1.40;;;;;;;;;;5073336;28;20021;-62
2021/10/21 00:33:30;;;;;;;14.73;1.65;;;;;;;;;;5073381;28;20059;-62
2021/10/21 00:35:56;;;;;;;26.35;2.13;;;;;;;;;;5073336;28;20028;-62
2021/10/21 00:38:22;;;;;;;7.22;1.30;;;;;;;;;;5073417;28;20043;-61
2021/10/21 00:40:49;;;;;;;16.67;1.67;;;;;;;;;;5073426;28;20091;-61
2021/10/21 00:43:15;;;;;;;17.77;1.52;;;;;;;;;;5073264;28;20423;-63
2021/10/21 00:45:41;;;;;;;6.18;1.35;;;;;;;;;;5073287;28;20507;-61
2021/10/21 00:48:07;;;;;;;4.97;1.20;;;;;;;;;;5071761;28;20078;-61
2021/10/21 00:50:33;;;;;;;10.60;1.40;;;;;;;;;;5053122;28;20040;-61
2021/10/21 00:53:00;;;;;;;12.02;1.52;;;;;;;;;;5053243;28;20060;-61
2021/10/21 00:55:27;;;;;;;8.88;1.30;;;;;;;;;;5052627;28;20025;-61
2021/10/21 00:57:53;;;;;;;12.57;1.30;;;;;;;;;;5053088;28;20032;-61
2021/10/21 01:00:19;;;;;;;8.90;1.60;;;;;;;;;;5053027;28;20032;-60
2021/10/21 01:02:45;;;;;;;7.18;1.40;;;;;;;;;;5052488;28;20021;-60
2021/10/21 01:05:12;;;;;;;18.52;1.50;;;;;;;;;;5051734;28;20043;-60
2021/10/21 01:07:38;;;;;;;11.50;1.35;;;;;;;;;;5052883;28;20359;-61
2021/10/21 01:10:05;;;;;;;15.80;1.40;;;;;;;;;;5052912;28;20029;-61
2021/10/21 01:12:32;;;;;;;11.57;1.50;;;;;;;;;;5052811;28;20025;-60
2021/10/21 01:15:17;;;;;;;4.50;1.40;;;;;;;;;;5052783;28;20096;-61
2021/10/21 01:17:43;;;;;;;7.93;1.10;;;;;;;;;;5052828;28;20021;-61
2021/10/21 01:20:11;;;;;;;6.90;1.23;;;;;;;;;;5052658;28;20021;-61
2021/10/21 01:22:38;;;;;;;8.15;1.08;;;;;;;;;;5052950;28;20029;-61
2021/10/21 01:25:04;;;;;;;5.90;1.08;;;;;;;;;;5052366;28;20400;-61
2021/10/21 01:27:30;;;;;;;6.53;1.17;;;;;;;;;;5058101;28;20100;-61
2021/10/21 01:29:56;;;;;;;3.63;1.20;;;;;;;;;;5063358;28;20131;-61
2021/10/21 01:32:26;;;;;;;7.38;1.27;;;;;;;;;;5052489;28;20017;-61
2021/10/21 01:34:52;;;;;;;5.22;1.17;;;;;;;;;;5053252;28;20017;-61
2021/10/21 01:37:18;;;;;;;7.63;1.27;;;;;;;;;;5052671;28;20125;-61
2021/10/21 01:39:44;;;;;;;7.57;1.58;;;;;;;;;;5052572;28;20436;-61
2021/10/21 01:42:10;;;;;;;7.60;1.38;;;;;;;;;;5052518;28;20035;-61
2021/10/21 01:44:36;;;;;;;7.95;1.40;;;;;;;;;;5052082;28;20496;-62
2021/10/21 01:47:02;;;;;;;8.57;1.75;;;;;;;;;;5051280;28;20360;-61
2021/10/21 01:49:28;;;;;;;7.57;1.48;;;;;;;;;;5052318;28;20075;-61
2021/10/21 01:51:54;;;;;;;9.10;1.20;;;;;;;;;;5052737;28;20021;-62
2021/10/21 01:54:20;;;;;;;14.35;1.70;;;;;;;;;;5034482;28;20021;-62
2021/10/21 01:56:46;;;;;;;13.85;1.52;;;;;;;;;;5052368;28;20029;-62
2021/10/21 01:59:12;;;;;;;10.35;1.50;;;;;;;;;;5052155;28;20219;-61
2021/10/21 02:01:38;;;;;;;10.18;1.67;;;;;;;;;;5052103;28;20033;-62
2021/10/21 02:04:14;;;;;;;13.05;1.60;;;;;;;;;;5051001;28;20036;-61
2021/10/21 02:06:40;;;;;;;10.45;1.30;;;;;;;;;;5053389;28;20028;-61
2021/10/21 02:09:06;;;;;;;7.95;1.15;;;;;;;;;;5056254;28;20025;-61
2021/10/21 02:11:32;;;;;;;11.82;1.67;;;;;;;;;;5056127;28;20043;-61
2021/10/21 02:13:58;;;;;;;8.82;1.35;;;;;;;;;;5055932;28;20425;-62
2021/10/21 02:16:24;;;;;;;6.03;1.20;;;;;;;;;;5056306;28;20516;-61
2021/10/21 02:18:53;;;;;;;10.30;1.85;;;;;;;;;;5055878;28;20357;-61
2021/10/21 02:21:19;;;;;;;9.75;1.38;;;;;;;;;;5055129;28;20040;-60
2021/10/21 02:23:45;;;;;;;9.32;1.50;;;;;;;;;;5055675;28;20021;-61
2021/10/21 02:26:11;;;;;;;8.45;1.50;;;;;;;;;;5055838;28;20365;-61
2021/10/21 02:28:37;;;;;;;9.90;1.63;;;;;;;;;;5070537;28;20020;-61
2021/10/21 02:31:02;;;;;;;8.10;1.55;;;;;;;;;;5075468;28;20032;-61
2021/10/21 02:33:28;;;;;;;6.38;1.05;;;;;;;;;;5075893;28;20032;-61
2021/10/21 02:35:54;;;;;;;6.43;1.13;;;;;;;;;;5075728;28;20025;-61
2021/10/21 02:38:20;;;;;;;5.22;1.25;;;;;;;;;;5075637;28;20052;-61
2021/10/21 02:40:46;;;;;;;6.28;1.20;;;;;;;;;;5075530;28;20110;-61
2021/10/21 02:43:13;;;;;;;7.65;1.20;;;;;;;;;;5075529;28;20031;-61
2021/10/21 02:45:40;;;;;;;8.05;1.30;;;;;;;;;;5065751;28;20037;-61
2021/10/21 02:48:06;;;;;;;7.13;1.30;;;;;;;;;;5055831;28;20022;-61
2021/10/21 02:50:32;;;;;;;3.38;1.30;;;;;;;;;;5055475;28;20036;-61
2021/10/21 02:52:58;;;;;;;9.10;1.42;;;;;;;;;;5055506;28;20025;-61
2021/10/21 02:55:24;;;;;;;3.95;1.00;;;;;;;;;;5055256;28;20057;-61
2021/10/21 02:57:50;;;;;;;13.38;1.35;;;;;;;;;;5055299;28;20021;-61
2021/10/21 03:00:16;;;;;;;8.40;1.10;;;;;;;;;;5055031;28;20511;-61
2021/10/21 03:02:42;;;;;;;5.30;1.20;;;;;;;;;;5054067;28;20029;-62
2021/10/21 03:05:09;;;;;;;3.97;1.00;;;;;;;;;;5055031;28;20040;-61
2021/10/21 03:07:35;;;;;;;5.20;1.08;;;;;;;;;;5055063;28;20029;-61
2021/10/21 03:10:01;;;;;;;5.78;1.10;;;;;;;;;;5055019;28;20032;-61
2021/10/21 03:12:27;;;;;;;5.57;1.02;;;;;;;;;;5055051;28;20079;-61
2021/10/21 03:14:53;;;;;;;7.47;1.17;;;;;;;;;;5054795;28;20036;-61
2021/10/21 03:17:19;;;;;;;3.10;0.88;;;;;;;;;;5054640;28;20033;-62
2021/10/21 03:19:46;;;;;;;4.22;0.98;;;;;;;;;;5053866;28;20059;-61
2021/10/21 03:22:12;;;;;;;3.83;1.13;;;;;;;;;;5054958;28;20049;-61
2021/10/21 03:24:38;;;;;;;11.88;1.30;;;;;;;;;;5054456;28;20084;-61
2021/10/21 03:27:04;;;;;;;7.50;0.90;;;;;;;;;;5056599;28;20028;-62
2021/10/21 03:29:30;;;;;;;3.00;0.80;;;;;;;;;;5074762;28;20021;-61
2021/10/21 03:31:56;;;;;;;3.75;0.93;;;;;;;;;;5074440;28;20029;-61
2021/10/21 03:34:22;;;;;;;5.55;1.10;;;;;;;;;;5074667;28;20028;-61
2021/10/21 03:36:48;;;;;;;11.90;1.20;;;;;;;;;;5074681;28;20033;-62
2021/10/21 03:39:14;;;;;;;3.95;1.10;;;;;;;;;;5058449;28;20049;-62
2021/10/21 03:41:40;;;;;;;6.30;1.20;;;;;;;;;;5054702;28;20021;-61
2021/10/21 03:44:06;;;;;;;3.70;0.82;;;;;;;;;;5054530;28;20071;-61
2021/10/21 03:46:32;;;;;;;7.63;1.00;;;;;;;;;;5054024;28;20021;-61
2021/10/21 03:48:58;;;;;;;4.35;1.08;;;;;;;;;;5054251;28;20025;-61
2021/10/21 03:51:24;;;;;;;4.63;0.90;;;;;;;;;;5054185;28;20033;-61
2021/10/21 03:53:50;;;;;;;5.03;1.20;;;;;;;;;;5054301;28;20120;-62
2021/10/21 03:56:17;;;;;;;7.68;1.30;;;;;;;;;;5052905;28;20029;-61
2021/10/21 03:58:43;;;;;;;7.07;1.00;;;;;;;;;;5054446;28;20121;-61
2021/10/21 04:01:09;;;;;;;6.55;0.80;;;;;;;;;;5053740;28;20128;-61
2021/10/21 04:03:35;;;;;;;6.45;1.00;;;;;;;;;;5054000;28;20028;-62
2021/10/21 04:06:01;;;;;;;3.53;0.70;;;;;;;;;;5053808;28;20032;-61
2021/10/21 04:08:27;;;;;;;5.47;1.08;;;;;;;;;;5053680;28;20132;-61
2021/10/21 04:10:53;;;;;;;3.83;0.75;;;;;;;;;;5054109;28;20033;-61
2021/10/21 04:13:20;;;;;;;6.22;1.23;;;;;;;;;;5052715;28;20024;-61
2021/10/21 04:15:47;;;;;;;4.05;1.10;;;;;;;;;;5053634;28;20028;-61
2021/10/21 04:18:13;;;;;;;4.40;1.00;;;;;;;;;;5053817;28;20027;-62
2021/10/21 04:20:39;;;;;;;5.78;1.10;;;;;;;;;;5053535;28;20116;-61
2021/10/21 04:23:05;;;;;;;3.85;0.77;;;;;;;;;;5053545;28;20036;-62
2021/10/21 04:25:31;;;;;;;2.70;0.70;;;;;;;;;;5053318;28;20485;-61
2021/10/21 04:27:57;;;;;;;2.30;0.68;;;;;;;;;;5061698;28;20043;-61
2021/10/21 04:30:22;;;;;;;6.70;1.10;;;;;;;;;;5072948;28;20463;-61
2021/10/21 04:32:48;;;;;;;4.00;1.00;;;;;;;;;;5073272;28;20108;-61
2021/10/21 04:35:14;;;;;;;9.07;0.82;;;;;;;;;;5073344;28;20032;-61
2021/10/21 04:37:40;;;;;;;5.32;1.00;;;;;;;;;;5073240;28;20063;-61
2021/10/21 04:40:06;;;;;;;5.82;1.10;;;;;;;;;;5073304;28;20042;-61
2021/10/21 04:42:33;;;;;;;3.42;1.10;;;;;;;;;;5073257;28;20024;-61
2021/10/21 04:44:59;;;;;;;3.78;0.80;;;;;;;;;;5035766;28;20041;-61
2021/10/21 04:47:24;;;;;;;3.58;0.68;;;;;;;;;;5068840;28;20017;-61
2021/10/21 04:49:51;;;;;;;7.88;1.13;;;;;;;;;;5070209;28;20028;-62
2021/10/21 04:52:16;;;;;;;3.63;0.90;;;;;;;;;;5073306;28;20052;-62
2021/10/21 04:54:43;;;;;;;3.33;0.82;;;;;;;;;;5073272;28;20526;-61
2021/10/21 04:57:08;;;;;;;4.65;0.88;;;;;;;;;;5073200;28;20024;-61
2021/10/21 04:59:34;;;;;;;4.50;0.88;;;;;;;;;;5072968;28;20035;-61
2021/10/21 05:02:00;;;;;;;6.32;1.10;;;;;;;;;;5068523;28;20021;-62
2021/10/21 05:04:27;;;;;;;2.38;0.82;;;;;;;;;;5053054;28;20358;-62
2021/10/21 05:06:53;;;;;;;4.03;0.90;;;;;;;;;;5052941;28;20021;-62
2021/10/21 05:09:19;;;;;;;5.40;0.98;;;;;;;;;;5052897;28;20021;-63
2021/10/21 05:11:45;;;;;;;2.58;0.70;;;;;;;;;;5052842;28;20025;-63
2021/10/21 05:14:11;;;;;;;4.38;0.70;;;;;;;;;;5052650;28;20033;-63
2021/10/21 05:16:37;;;;;;;2.45;0.80;;;;;;;;;;5052325;28;20029;-64
2021/10/21 05:19:03;;;;;;;5.38;0.90;;;;;;;;;;5052325;28;20025;-63
2021/10/21 05:21:29;;;;;;;7.03;0.90;;;;;;;;;;5052720;28;20021;-63
2021/10/21 05:23:55;;;;;;;4.28;0.90;;;;;;;;;;5052578;28;20120;-63
2021/10/21 05:26:21;;;;;;;2.13;0.45;;;;;;;;;;5052996;28;20025;-62
2021/10/21 05:28:47;;;;;;;4.88;0.90;;;;;;;;;;5068926;28;20027;-62
2021/10/21 05:31:13;;;;;;;3.28;0.80;;;;;;;;;;5072753;28;20032;-63
2021/10/21 05:33:39;;;;;;;1.92;0.60;;;;;;;;;;5072764;28;20024;-64
2021/10/21 05:36:05;;;;;;;4.30;0.80;;;;;;;;;;5072584;28;20107;-64
2021/10/21 05:38:31;;;;;;;3.80;0.80;;;;;;;;;;5072489;28;20051;-63
2021/10/21 05:40:57;;;;;;;2.15;0.75;;;;;;;;;;5074301;28;20029;-62
2021/10/21 05:43:23;;;;;;;2.88;0.73;;;;;;;;;;5076562;28;20504;-63
2021/10/21 05:45:50;;;;;;;2.65;0.60;;;;;;;;;;5076502;28;20043;-63
2021/10/21 05:48:16;;;;;;;3.38;0.90;;;;;;;;;;5076538;28;20074;-63
2021/10/21 05:50:43;;;;;;;16.17;1.85;;;;;;;;;;5076577;28;20107;-64
2021/10/21 05:53:09;;;;;;;13.07;1.20;;;;;;;;;;5076516;28;20430;-63
2021/10/21 05:55:35;;;;;;;8.18;1.10;;;;;;;;;;5076481;28;20413;-63
2021/10/21 05:58:01;;;;;;;15.68;1.33;;;;;;;;;;5076727;28;20051;-64
2021/10/21 06:00:27;;;;;;;15.70;1.15;;;;;;;;;;5076328;28;20017;-63
2021/10/21 06:02:53;;;;;;;20.58;1.20;;;;;;;;;;5076608;28;20033;-62
2021/10/21 06:05:23;;;;;;;15.85;1.67;;;;;;;;;;5075969;28;20037;-63
2021/10/21 06:07:50;;;;;;;8.93;1.05;;;;;;;;;;5076134;28;20028;-63
2021/10/21 06:10:16;;;;;;;13.70;0.95;;;;;;;;;;5076453;28;20060;-63
2021/10/21 06:12:44;;;;;;;19.90;1.30;;;;;;;;;;5076229;28;20066;-61
2021/10/21 06:15:13;;;;;;;25.20;1.52;;;;;;;;;;5076104;28;20024;-63
2021/10/21 06:17:41;;;;;;;22.63;1.58;;;;;;;;;;5076090;28;20069;-61
2021/10/21 06:20:11;;;;;;;15.60;1.42;;;;;;;;;;5075863;28;20036;-62
2021/10/21 06:22:37;;;;;;;10.93;1.13;;;;;;;;;;5076090;28;20048;-62
2021/10/21 06:25:07;;;;;;;14.90;1.60;;;;;;;;;;5075548;28;20087;-64
2021/10/21 06:27:33;;;;;;;43.08;2.35;;;;;;;;;;5051734;28;20048;-64
2021/10/21 06:29:59;;;;;;;21.35;1.65;;;;;;;;;;5055755;28;20021;-62
2021/10/21 06:32:25;;;;;;;33.03;1.65;;;;;;;;;;5055476;28;20075;-63
2021/10/21 06:34:51;;;;;;;19.02;1.90;;;;;;;;;;5055821;28;20411;-64
2021/10/21 06:37:17;;;;;;;30.50;2.10;;;;;;;;;;5055562;28;20052;-65
2021/10/21 06:39:44;;;;;;;22.35;2.05;;;;;;;;;;5055932;28;20067;-64
2021/10/21 06:42:09;;;;;;;26.92;1.90;;;;;;;;;;5037703;28;20021;-63
2021/10/21 06:44:36;;;;;;;44.10;2.15;;;;;;;;;;5055439;28;20025;-66
2021/10/21 06:47:03;;;;;;;22.67;1.55;;;;;;;;;;5059752;28;20025;-63
2021/10/21 06:49:30;;;;;;;16.33;1.50;;;;;;;;;;5069516;28;20107;-64
2021/10/21 06:51:56;;;;;;;19.23;1.50;;;;;;;;;;5064151;28;20017;-63
2021/10/21 06:54:22;;;;;;;11.57;1.80;;;;;;;;;;5058148;28;20035;-63
2021/10/21 06:56:48;;;;;;;14.77;1.88;;;;;;;;;;5063297;28;20029;-64
2021/10/21 06:59:14;;;;;;;16.75;2.00;;;;;;;;;;5063434;28;20021;-64
2021/10/21 07:01:41;;;;;;;17.73;1.55;;;;;;;;;;5068862;28;20047;-65
2021/10/21 07:04:07;;;;;;;15.90;1.90;;;;;;;;;;5063214;28;20021;-64
2021/10/21 07:06:33;;;;;;;11.13;2.05;;;;;;;;;;5060264;28;20033;-64
2021/10/21 07:08:59;;;;;;;10.75;2.35;;;;;;;;;;5055051;28;20025;-64
2021/10/21 07:11:25;;;;;;;31.80;2.17;;;;;;;;;;5057762;28;20032;-64
2021/10/21 07:13:51;;;;;;;18.63;2.70;;;;;;;;;;5067087;28;20020;-63
2021/10/21 07:16:17;;;;;;;25.60;2.38;;;;;;;;;;5075062;28;20380;-64
2021/10/21 07:18:43;;;;;;;20.52;1.98;;;;;;;;;;5071536;28;20080;-64
2021/10/21 07:21:10;;;;;;;15.82;2.20;;;;;;;;;;5062746;28;20029;-65
2021/10/21 07:23:36;;;;;;;13.65;2.30;;;;;;;;;;5054756;28;20043;-65
2021/10/21 07:26:02;;;;;;;19.33;2.65;;;;;;;;;;5054303;28;20409;-66
2021/10/21 07:28:28;;;;;;;17.00;1.88;;;;;;;;;;5043111;28;20024;-64
2021/10/21 07:30:57;;;;;;;13.68;1.98;;;;;;;;;;5054708;28;20144;-64
2021/10/21 07:33:23;;;;;;;16.42;2.03;;;;;;;;;;5054334;28;20025;-64
2021/10/21 07:35:49;;;;;;;16.88;2.78;;;;;;;;;;5054735;28;20025;-63
2021/10/21 07:38:15;;;;;;;18.48;2.08;;;;;;;;;;5054421;28;20099;-64
2021/10/21 07:40:41;;;;;;;27.15;2.05;;;;;;;;;;5053869;28;20029;-64
2021/10/21 07:43:12;;;;;;;23.77;3.00;;;;;;;;;;5045481;28;20074;-64
2021/10/21 07:45:38;;;;;;;36.60;2.13;;;;;;;;;;5056435;28;20459;-64
2021/10/21 07:48:04;;;;;;;17.95;2.35;;;;;;;;;;5054164;28;20075;-64
2021/10/21 07:50:30;;;;;;;15.63;2.33;;;;;;;;;;5054017;28;20040;-64
2021/10/21 07:52:56;;;;;;;13.48;2.22;;;;;;;;;;5054430;28;20024;-63
2021/10/21 07:55:23;;;;;;;18.90;2.83;;;;;;;;;;5053811;28;20033;-65
2021/10/21 07:57:49;;;;;;;16.65;1.75;;;;;;;;;;5053953;28;20032;-65
2021/10/21 08:00:15;;;;;;;15.20;1.90;;;;;;;;;;5054204;28;20099;-64
2021/10/21 08:02:42;;;;;;;11.18;1.77;;;;;;;;;;5053973;28;20107;-65
2021/10/21 08:05:08;;;;;;;19.30;2.00;;;;;;;;;;5052899;28;20044;-65
2021/10/21 08:07:41;;;;;;;11.57;1.85;;;;;;;;;;5053761;28;20049;-65
2021/10/21 08:10:07;;;;;;;;;;;;;;;;;;5054257;28;20032;-65
2021/10/21 08:12:33;;;;;;;18.92;2.60;;;;;;;;;;5053679;28;19905;-66
2021/10/21 08:14:59;;;;;;;10.68;1.92;;;;;;;;;;5053773;28;20425;-65
2021/10/21 08:17:25;;;;;;;13.93;1.70;;;;;;;;;;5053740;28;20071;-65
2021/10/21 08:19:51;;;;;;;10.38;1.92;;;;;;;;;;5053512;28;20024;-65
2021/10/21 08:22:17;;;;;;;9.85;2.03;;;;;;;;;;5053566;28;20036;-66
2021/10/21 08:24:43;;;;;;;13.13;1.77;;;;;;;;;;5054164;28;20055;-65
2021/10/21 08:27:09;;;;;;;9.90;1.50;;;;;;;;;;5059578;28;20035;-65
2021/10/21 08:29:36;;;;;;;11.80;1.35;;;;;;;;;;5056687;28;20447;-64
2021/10/21 08:32:04;;;;;;;8.02;1.58;;;;;;;;;;5057997;28;20024;-65
2021/10/21 08:34:33;;;;;;;15.75;2.25;;;;;;;;;;5067876;28;20036;-65
2021/10/21 08:37:00;;;;;;;6.28;1.55;;;;;;;;;;5073184;28;20021;-64
2021/10/21 08:39:26;;;;;;;10.52;1.45;;;;;;;;;;5073361;28;20028;-64
2021/10/21 08:41:52;;;;;;;7.88;1.50;;;;;;;;;;5054437;28;20132;-64
2021/10/21 08:44:18;;;;;;;18.20;1.10;;;;;;;;;;5053217;28;20591;-64
2021/10/21 08:46:46;;;;;;;8.75;1.73;;;;;;;;;;5053235;28;20481;-65
2021/10/21 08:49:13;;;;;;;8.40;1.20;;;;;;;;;;5060327;28;20024;-64
2021/10/21 08:51:39;;;;;;;5.82;1.17;;;;;;;;;;5073434;28;20107;-65
2021/10/21 08:54:05;;;;;;;7.00;1.13;;;;;;;;;;5058484;28;20031;-64
2021/10/21 08:56:32;;;;;;;6.35;1.25;;;;;;;;;;5053113;28;20131;-64
2021/10/21 08:59:00;;;;;;;14.20;1.70;;;;;;;;;;5052644;28;20512;-66
2021/10/21 09:04:16;;;;;;;7.95;1.45;;;;;;;;;;5066030;28;20036;-64
2021/10/21 09:09:25;;;;;;;11.65;2.55;;;;;;;;;;5052809;28;20040;-65
2021/10/21 09:12:04;;;;;;;4.93;0.98;;;;;;;;;;5052980;28;20071;-64
2021/10/21 09:14:34;;;;;;;13.85;1.35;;;;;;;;;;5052617;28;20056;-65
2021/10/21 09:17:01;;;;;;;8.82;0.98;;;;;;;;;;5060641;28;20027;-65
2021/10/21 09:19:28;;;;;;;10.57;1.50;;;;;;;;;;5056208;28;20032;-65
2021/10/21 09:21:54;;;;;;;12.73;1.30;;;;;;;;;;5052364;28;20361;-65
2021/10/21 09:24:30;;;;;;;6.65;1.02;;;;;;;;;;5058350;28;20057;-65
2021/10/21 09:27:11;;;;;;;11.02;1.30;;;;;;;;;;5036026;28;20052;-64
2021/10/21 09:29:56;;;;;;;10.20;1.95;;;;;;;;;;5072670;28;20025;-65
2021/10/21 09:32:23;;;;;;;9.82;1.33;;;;;;;;;;5072617;28;20055;-65
2021/10/21 09:34:51;;;;;;;11.43;1.25;;;;;;;;;;5068545;28;20025;-64
2021/10/21 09:37:18;;;;;;;8.70;1.40;;;;;;;;;;5052649;28;20032;-65
2021/10/21 09:39:47;;;;;;;6.05;1.30;;;;;;;;;;5052301;28;20032;-64
2021/10/21 09:42:14;;;;;;;9.02;1.00;;;;;;;;;;5052448;28;20032;-64
2021/10/21 09:44:40;;;;;;;12.02;1.27;;;;;;;;;;5052341;28;20384;-64
2021/10/21 09:47:22;;;;;;;8.40;1.63;;;;;;;;;;5034346;28;20481;-64
2021/10/21 09:49:53;;;;;;;8.70;1.08;;;;;;;;;;5052326;28;20091;-65
2021/10/21 09:52:21;;;;;;;9.05;1.25;;;;;;;;;;5052769;28;20033;-65
2021/10/21 09:54:48;;;;;;;8.38;1.38;;;;;;;;;;5052255;28;20021;-64
2021/10/21 09:57:17;;;;;;;8.50;1.38;;;;;;;;;;5052206;28;20024;-63
2021/10/21 09:59:44;;;;;;;11.30;1.73;;;;;;;;;;5052401;28;20036;-64
2021/10/21 10:02:14;;;;;;;5.32;1.02;;;;;;;;;;5052486;28;20017;-65
2021/10/21 10:04:42;;;;;;;6.93;1.25;;;;;;;;;;5052324;28;20029;-65
2021/10/21 10:07:09;;;;;;;5.65;1.17;;;;;;;;;;5052467;28;20456;-64
2021/10/21 10:09:35;;;;;;;7.05;1.35;;;;;;;;;;5052211;28;20104;-64
2021/10/21 10:12:04;;;;;;;9.90;1.00;;;;;;;;;;5051909;28;20417;-64
2021/10/21 10:14:31;;;;;;;7.88;1.30;;;;;;;;;;5057589;28;20032;-64
2021/10/21 10:17:03;;;;;;;11.43;1.30;;;;;;;;;;5065921;28;20017;-64
2021/10/21 10:19:30;;;;;;;11.32;1.35;;;;;;;;;;5052146;28;20033;-64
2021/10/21 10:21:58;;;;;;;11.93;1.45;;;;;;;;;;5059664;28;20041;-65
2021/10/21 10:24:33;;;;;;;6.65;1.20;;;;;;;;;;5057886;28;20036;-64
2021/10/21 10:26:59;;;;;;;10.88;1.10;;;;;;;;;;5063903;28;20040;-64
2021/10/21 10:29:31;;;;;;;10.43;1.40;;;;;;;;;;5061057;28;20104;-64
2021/10/21 10:31:59;;;;;;;8.77;1.15;;;;;;;;;;5060125;28;20028;-64
2021/10/21 10:34:36;;;;;;;12.63;1.45;;;;;;;;;;5055897;28;20021;-64
2021/10/21 10:37:14;;;;;;;8.05;1.45;;;;;;;;;;5058166;28;20020;-64
2021/10/21 10:39:46;;;;;;;10.77;1.60;;;;;;;;;;5068180;28;20021;-65
2021/10/21 10:42:13;;;;;;;6.90;1.30;;;;;;;;;;5055471;28;20025;-64
2021/10/21 10:44:39;;;;;;;10.45;1.35;;;;;;;;;;5069124;28;20372;-66
2021/10/21 10:47:06;;;;;;;12.77;1.50;;;;;;;;;;5072696;28;20440;-65
2021/10/21 10:49:40;;;;;;;10.13;1.08;;;;;;;;;;5055467;28;20021;-66
2021/10/21 10:52:13;;;;;;;11.27;1.38;;;;;;;;;;5055200;28;20013;-64
2021/10/21 10:54:39;;;;;;;9.70;2.25;;;;;;;;;;5055180;28;20021;-66
2021/10/21 10:57:06;;;;;;;7.05;1.17;;;;;;;;;;5055207;28;20514;-63
2021/10/21 10:59:33;;;;;;;9.10;1.08;;;;;;;;;;5055455;28;20025;-64
2021/10/21 11:02:00;;;;;;;6.13;1.30;;;;;;;;;;5055125;28;20013;-63
2021/10/21 11:04:44;;;;;;;9.98;1.13;;;;;;;;;;5055009;28;20036;-65
2021/10/21 11:07:11;;;;;;;12.35;1.17;;;;;;;;;;5054959;28;20104;-63
2021/10/21 11:09:37;;;;;;;11.07;1.30;;;;;;;;;;5055143;28;20025;-64
2021/10/21 11:12:03;;;;;;;9.85;1.23;;;;;;;;;;5054811;28;20021;-63
2021/10/21 11:14:32;;;;;;;10.45;1.40;;;;;;;;;;5054976;28;20025;-66
2021/10/21 11:16:58;;;;;;;9.27;1.20;;;;;;;;;;5054832;28;20036;-63
2021/10/21 11:19:55;;;;;;;5.85;1.20;;;;;;;;;;5054723;28;20542;-64
2021/10/21 11:22:21;;;;;;;7.70;1.10;;;;;;;;;;5012790;28;20892;-64
2021/10/21 11:24:53;;;;;;;8.05;1.38;;;;;;;;;;5034198;28;20128;-64
2021/10/21 11:27:20;;;;;;;9.35;1.30;;;;;;;;;;5058200;28;20381;-62
2021/10/21 11:29:48;;;;;;;5.38;1.20;;;;;;;;;;5058478;28;20025;-62
2021/10/21 11:32:15;;;;;;;4.47;1.25;;;;;;;;;;5054180;28;20407;-62
2021/10/21 11:34:41;;;;;;;6.63;1.10;;;;;;;;;;5054635;28;20021;-64
2021/10/21 11:37:07;;;;;;;15.63;0.98;;;;;;;;;;5054452;28;20029;-64
2021/10/21 11:39:34;;;;;;;6.78;1.02;;;;;;;;;;5051569;28;20100;-65
2021/10/21 11:42:03;;;;;;;12.88;1.70;;;;;;;;;;5034411;28;20033;-63
2021/10/21 11:44:29;;;;;;;9.77;1.67;;;;;;;;;;5034636;28;20485;-61
2021/10/21 11:46:59;;;;;;;6.82;1.00;;;;;;;;;;5034688;28;20033;-64
2021/10/21 11:49:26;;;;;;;8.05;1.10;;;;;;;;;;5034897;28;20021;-64
2021/10/21 11:52:02;;;;;;;9.63;1.17;;;;;;;;;;5034616;28;20029;-62
2021/10/21 11:54:28;;;;;;;7.07;0.80;;;;;;;;;;5034600;28;20029;-65
2021/10/21 11:56:54;;;;;;;9.30;1.25;;;;;;;;;;5040656;28;20017;-62
2021/10/21 11:59:37;;;;;;;7.70;1.00;;;;;;;;;;5054222;28;20029;-62
2021/10/21 12:02:08;;;;;;;3.55;0.90;;;;;;;;;;5054279;28;20025;-62
2021/10/21 12:04:35;;;;;;;8.18;1.20;;;;;;;;;;5054483;28;20114;-62
2021/10/21 12:07:02;;;;;;;9.00;0.95;;;;;;;;;;5054376;28;20103;-62
2021/10/21 12:09:31;;;;;;;9.60;1.20;;;;;;;;;;5054109;28;20143;-64
2021/10/21 12:12:05;;;;;;;11.05;0.90;;;;;;;;;;5034722;28;20044;-62
2021/10/21 12:14:31;;;;;;;8.98;0.90;;;;;;;;;;5035496;28;20408;-66
2021/10/21 12:16:57;;;;;;;7.30;1.27;;;;;;;;;;5047976;28;20439;-63
2021/10/21 12:19:24;;;;;;;3.97;0.98;;;;;;;;;;5049674;28;20029;-62
2021/10/21 12:21:51;;;;;;;6.43;0.80;;;;;;;;;;5051480;28;20017;-62
2021/10/21 12:24:20;;;;;;;8.55;0.82;;;;;;;;;;5050985;28;20025;-64
2021/10/21 12:27:08;;;;;;;4.72;0.90;;;;;;;;;;5044927;28;20055;-62
2021/10/21 12:32:14;;;;;;;5.72;0.93;;;;;;;;;;5033757;28;20048;-62
2021/10/21 12:34:41;;;;;;;3.70;1.13;;;;;;;;;;5049604;28;20036;-63
2021/10/21 12:37:16;;;;;;;7.25;0.88;;;;;;;;;;5042971;28;20025;-65
2021/10/21 12:39:42;;;;;;;5.22;0.93;;;;;;;;;;5046098;28;20513;-63
2021/10/21 12:42:10;;;;;;;6.20;1.25;;;;;;;;;;5033498;28;20156;-64
2021/10/21 12:44:40;;;;;;;3.50;0.90;;;;;;;;;;5027051;28;20038;-67
2021/10/21 12:47:14;;;;;;;3.88;0.90;;;;;;;;;;5036112;28;20033;-65
2021/10/21 12:49:40;;;;;;;4.22;0.73;;;;;;;;;;5053179;28;20461;-63
2021/10/21 12:52:11;;;;;;;3.70;0.85;;;;;;;;;;5035223;28;20373;-63
2021/10/21 12:54:38;;;;;;;7.80;1.05;;;;;;;;;;5053392;28;20077;-63
2021/10/21 12:57:04;;;;;;;19.67;1.27;;;;;;;;;;5038698;28;20025;-63
2021/10/21 12:59:34;;;;;;;24.35;1.45;;;;;;;;;;5033088;28;20029;-63
2021/10/21 13:02:08;;;;;;;10.38;0.90;;;;;;;;;;5015255;28;20116;-63
2021/10/21 13:04:45;;;;;;;10.55;0.98;;;;;;;;;;5040560;28;20480;-63
2021/10/21 13:07:13;;;;;;;26.65;1.35;;;;;;;;;;5053455;28;20025;-62
2021/10/21 13:09:40;;;;;;;14.15;1.10;;;;;;;;;;5053132;28;20017;-63
2021/10/21 13:12:06;;;;;;;6.85;0.98;;;;;;;;;;5053085;28;20412;-64
2021/10/21 13:14:35;;;;;;;17.30;1.27;;;;;;;;;;5053163;28;20025;-64
2021/10/21 13:17:01;;;;;;;14.23;1.27;;;;;;;;;;5053029;28;20021;-64
2021/10/21 13:19:27;;;;;;;15.90;1.55;;;;;;;;;;5053068;28;20400;-65
2021/10/21 13:21:53;;;;;;;20.77;1.30;;;;;;;;;;5052977;28;20021;-65
2021/10/21 13:24:19;;;;;;;12.48;1.58;;;;;;;;;;5052634;28;20056;-64
2021/10/21 13:26:45;;;;;;;17.10;1.30;;;;;;;;;;5053260;28;20452;-65
2021/10/21 13:29:12;;;;;;;18.92;1.70;;;;;;;;;;5061222;28;20024;-65
2021/10/21 13:31:39;;;;;;;29.63;1.27;;;;;;;;;;5052738;28;20151;-65
2021/10/21 13:34:05;;;;;;;6.35;1.40;;;;;;;;;;5053560;28;20051;-65
2021/10/21 13:36:31;;;;;;;5.95;1.27;;;;;;;;;;5070465;28;20035;-66
2021/10/21 13:38:57;;;;;;;16.25;1.20;;;;;;;;;;5055345;28;20017;-64
2021/10/21 13:41:23;;;;;;;10.48;1.38;;;;;;;;;;5034970;28;20076;-65
2021/10/21 13:43:49;;;;;;;11.45;2.10;;;;;;;;;;5055617;28;20500;-64
2021/10/21 13:46:16;;;;;;;16.80;1.60;;;;;;;;;;5052603;28;20044;-64
2021/10/21 13:48:42;;;;;;;10.68;1.42;;;;;;;;;;5052686;28;20096;-65
2021/10/21 13:51:08;;;;;;;6.50;1.35;;;;;;;;;;5052718;28;20103;-64
2021/10/21 13:53:35;;;;;;;10.48;1.40;;;;;;;;;;5053066;28;20465;-66
2021/10/21 13:56:01;;;;;;;15.25;2.00;;;;;;;;;;5055162;28;20025;-64
2021/10/21 13:58:28;;;;;;;10.73;1.50;;;;;;;;;;5052553;28;20028;-65
2021/10/21 14:00:55;;;;;;;11.07;2.00;;;;;;;;;;5052750;28;20360;-64
2021/10/21 14:03:21;;;;;;;13.15;2.03;;;;;;;;;;5056488;28;20033;-65
2021/10/21 14:05:48;;;;;;;19.50;2.88;;;;;;;;;;5056449;28;20123;-64
2021/10/21 14:08:14;;;;;;;15.25;3.08;;;;;;;;;;5056518;28;20017;-64
2021/10/21 14:10:41;;;;;;;29.10;4.80;;;;;;;;;;5058997;28;20064;-64
2021/10/21 14:13:07;;;;;;;26.23;4.78;;;;;;;;;;5076301;28;20025;-63
2021/10/21 14:15:34;;;;;;;31.98;6.75;;;;;;;;;;5075942;28;20031;-64
2021/10/21 14:18:00;;;;;;;37.08;8.40;;;;;;;;;;5069638;28;20162;-65
2021/10/21 14:20:26;;;;;;;36.55;7.85;;;;;;;;;;5052069;28;20032;-64
2021/10/21 14:22:52;;;;;;;40.72;9.32;;;;;;;;;;5046319;28;20380;-65
2021/10/21 14:25:19;;;;;;;43.90;10.00;;;;;;;;;;5045578;28;20049;-64
2021/10/21 14:27:45;;;;;;;49.13;10.52;;;;;;;;;;5064043;28;20475;-64
2021/10/21 14:30:11;;;;;;;45.97;10.75;;;;;;;;;;5075940;28;20459;-63
2021/10/21 14:32:38;;;;;;;44.58;10.88;;;;;;;;;;5076259;28;20023;-64
2021/10/21 14:35:05;;;;;;;52.75;11.88;;;;;;;;;;5076183;28;20021;-64
2021/10/21 14:37:37;;;;;;;48.85;10.93;;;;;;;;;;5076285;28;20069;-64
2021/10/21 14:40:04;;;;;;;42.80;11.07;;;;;;;;;;5055692;28;20476;-65
2021/10/21 14:42:29;;;;;;;60.17;11.52;;;;;;;;;;5058402;28;20097;-64
2021/10/21 14:44:57;;;;;;;53.13;9.80;;;;;;;;;;5047945;28;20124;-63
2021/10/21 14:47:23;;;;;;;44.30;10.48;;;;;;;;;;5052789;28;20037;-64